Terminal Aerodrome Forecast
Issued by NWS Bismarck, ND

Home | Current Version | Previous Version | Graphics & Text | Print | Product List | Glossary On
Versions: 1 2 3 4 5 6 7 8 9 10 11 12 13 14 15 16 17 18 19 20 21
000
FTUS43 KISN 180535
TAFISN
TAF
KISN 180535Z 1806/1906 16007KT P6SM FEW090 SCT250
     FM190000 14009KT P6SM BKN100 BKN200
     FM190400 13010KT P6SM SCT100 BKN120 WS006/16030KT=

USA.gov is the U.S. government's official web portal to all federal, state and local government web resources and services.